createdAt,value
2022-12-16T00:01:23.010Z,62.26
2022-12-16T00:03:49.718Z,61.94
2022-12-16T00:06:13.737Z,61.84
2022-12-16T00:08:40.000Z,61.80
2022-12-16T00:11:02.396Z,61.96
2022-12-16T00:13:23.885Z,61.76
2022-12-16T00:15:46.732Z,61.79
2022-12-16T00:18:08.239Z,61.83
2022-12-16T00:20:29.946Z,62.00
2022-12-16T00:22:51.701Z,62.03
2022-12-16T00:25:13.160Z,62.08
2022-12-16T00:27:34.652Z,62.02
2022-12-16T00:29:56.114Z,61.83
2022-12-16T00:32:17.608Z,61.58
2022-12-16T00:34:39.294Z,61.73
2022-12-16T00:37:00.840Z,61.70
2022-12-16T00:39:22.303Z,61.84
2022-12-16T00:41:43.808Z,61.89
2022-12-16T00:44:05.583Z,61.69
2022-12-16T00:46:27.126Z,62.00
2022-12-16T00:48:48.667Z,61.80
2022-12-16T00:51:10.162Z,62.16
2022-12-16T00:53:32.165Z,61.87
2022-12-16T00:56:08.526Z,62.21
2022-12-16T00:58:30.145Z,62.35
2022-12-16T01:00:51.794Z,62.65
2022-12-16T01:03:19.463Z,62.57
2022-12-16T01:05:42.891Z,62.30
2022-12-16T01:08:04.612Z,62.36
2022-12-16T01:10:26.150Z,62.21
2022-12-16T01:12:47.649Z,62.17
2022-12-16T01:15:12.501Z,62.20
2022-12-16T01:17:35.165Z,62.26
2022-12-16T01:19:56.623Z,62.21
2022-12-16T01:22:18.224Z,62.10
2022-12-16T01:24:39.805Z,62.10
2022-12-16T01:27:01.395Z,62.35
2022-12-16T01:29:22.900Z,62.51
2022-12-16T01:31:44.634Z,62.24
2022-12-16T01:34:06.157Z,61.80
2022-12-16T01:36:27.661Z,62.06
2022-12-16T01:38:49.560Z,62.03
2022-12-16T01:41:14.085Z,61.63
2022-12-16T01:43:37.921Z,61.64
2022-12-16T01:46:06.936Z,61.35
2022-12-16T01:48:43.605Z,61.52
2022-12-16T01:51:15.739Z,61.69
2022-12-16T01:53:40.062Z,61.54
2022-12-16T01:56:02.768Z,61.37
2022-12-16T01:58:30.626Z,61.42
2022-12-16T02:00:52.565Z,61.76
2022-12-16T02:03:16.595Z,61.31
2022-12-16T02:05:43.386Z,61.24
2022-12-16T02:08:13.874Z,61.31
2022-12-16T02:10:40.615Z,61.22
2022-12-16T02:13:21.728Z,61.46
2022-12-16T02:15:54.357Z,61.04
2022-12-16T02:18:53.264Z,61.67
2022-12-16T02:21:40.902Z,61.76
2022-12-16T02:24:02.583Z,61.69
2022-12-16T02:26:33.658Z,61.58
2022-12-16T02:29:16.561Z,61.63
2022-12-16T02:31:55.117Z,61.14
2022-12-16T02:34:30.188Z,60.62
2022-12-16T02:37:36.627Z,60.84
2022-12-16T02:40:28.287Z,60.99
2022-12-16T02:42:56.900Z,61.29
2022-12-16T02:45:24.282Z,61.24
2022-12-16T02:47:46.515Z,61.04
2022-12-16T02:50:21.232Z,61.03
2022-12-16T02:52:42.854Z,60.93
2022-12-16T02:55:09.070Z,61.03
2022-12-16T02:58:02.949Z,60.64
2022-12-16T03:00:25.472Z,60.68
2022-12-16T03:03:12.294Z,60.59
2022-12-16T03:05:48.139Z,60.56
2022-12-16T03:08:14.624Z,60.65
2022-12-16T03:10:43.439Z,60.77
2022-12-16T03:13:07.401Z,60.75
2022-12-16T03:15:33.054Z,60.80
2022-12-16T03:17:56.638Z,60.78
2022-12-16T03:20:34.793Z,60.56
2022-12-16T03:23:01.448Z,60.72
2022-12-16T03:25:23.345Z,61.08
2022-12-16T03:27:51.216Z,61.43
2022-12-16T03:30:44.704Z,61.09
2022-12-16T03:33:19.131Z,60.96
2022-12-16T03:35:48.722Z,61.23
2022-12-16T03:38:12.367Z,60.92
2022-12-16T03:40:35.980Z,60.61
2022-12-16T03:42:58.159Z,60.79
2022-12-16T03:45:25.247Z,61.17
2022-12-16T03:47:53.760Z,61.39
2022-12-16T03:50:15.704Z,61.15
2022-12-16T03:52:37.274Z,61.18
2022-12-16T03:54:58.752Z,60.97
2022-12-16T03:57:20.205Z,61.26
2022-12-16T03:59:41.679Z,61.09
2022-12-16T04:02:03.347Z,61.25
2022-12-16T04:04:25.063Z,61.19
2022-12-16T04:07:06.528Z,61.16
2022-12-16T04:09:28.003Z,60.70
2022-12-16T04:12:08.192Z,60.75
2022-12-16T04:14:53.282Z,61.05
2022-12-16T04:17:33.759Z,60.65
2022-12-16T04:20:13.791Z,60.75
2022-12-16T04:22:58.563Z,60.73
2022-12-16T04:25:28.930Z,60.76
2022-12-16T04:27:50.476Z,60.68
2022-12-16T04:30:21.902Z,60.79
2022-12-16T04:33:02.058Z,60.72
2022-12-16T04:35:42.384Z,60.88
2022-12-16T04:38:22.666Z,61.10
2022-12-16T04:41:02.392Z,60.98
2022-12-16T04:43:42.700Z,60.89
2022-12-16T04:46:23.245Z,60.93
2022-12-16T04:49:03.462Z,60.77
2022-12-16T04:51:43.600Z,60.85
2022-12-16T04:54:23.648Z,60.95
2022-12-16T04:57:03.606Z,60.79
2022-12-16T04:59:47.964Z,61.28
2022-12-16T05:02:28.021Z,61.19
2022-12-16T05:05:08.366Z,61.27
2022-12-16T05:07:48.179Z,61.36
2022-12-16T05:10:28.375Z,61.33
2022-12-16T05:13:08.204Z,61.11
2022-12-16T05:15:48.718Z,61.19
2022-12-16T05:18:34.365Z,61.35
2022-12-16T05:21:19.713Z,61.29
2022-12-16T05:23:59.501Z,60.97
2022-12-16T05:26:39.668Z,61.21
2022-12-16T05:29:19.633Z,61.07
2022-12-16T05:31:59.809Z,61.30
2022-12-16T05:34:39.985Z,61.32
2022-12-16T05:37:19.981Z,61.08
2022-12-16T05:39:59.827Z,60.94
2022-12-16T05:42:40.118Z,61.45
2022-12-16T05:45:19.982Z,61.23
2022-12-16T05:47:59.892Z,61.49
2022-12-16T05:50:40.235Z,61.25
2022-12-16T05:53:20.354Z,61.24
2022-12-16T05:56:01.825Z,61.19
2022-12-16T05:58:42.244Z,61.19
2022-12-16T06:01:22.581Z,61.69
2022-12-16T06:04:02.578Z,61.37
2022-12-16T06:06:42.446Z,61.21
2022-12-16T06:09:23.341Z,61.17
2022-12-16T06:12:03.381Z,60.83
2022-12-16T06:14:43.613Z,60.96
2022-12-16T06:17:23.700Z,60.78
2022-12-16T06:20:03.727Z,60.80
2022-12-16T06:22:43.699Z,60.80
2022-12-16T06:25:24.120Z,61.03
2022-12-16T06:28:09.720Z,60.89
2022-12-16T06:30:49.830Z,61.05
2022-12-16T06:33:29.882Z,60.97
2022-12-16T06:36:10.262Z,61.00
2022-12-16T06:38:50.072Z,61.02
2022-12-16T06:41:30.260Z,60.90
2022-12-16T06:44:10.048Z,60.62
2022-12-16T06:46:50.170Z,60.90
2022-12-16T06:49:30.289Z,60.80
2022-12-16T06:52:10.137Z,60.80
2022-12-16T06:54:49.961Z,61.05
2022-12-16T06:57:29.690Z,61.02
2022-12-16T07:00:09.660Z,61.16
2022-12-16T07:02:49.835Z,61.09
2022-12-16T07:05:30.041Z,60.84
2022-12-16T07:08:10.567Z,60.91
2022-12-16T07:10:51.621Z,60.72
2022-12-16T07:13:35.258Z,60.64
2022-12-16T07:16:15.579Z,60.67
2022-12-16T07:18:55.901Z,60.60
2022-12-16T07:21:36.015Z,60.57
2022-12-16T07:24:16.204Z,60.57
2022-12-16T07:26:56.166Z,60.35
2022-12-16T07:29:36.206Z,60.31
2022-12-16T07:32:16.201Z,60.45
2022-12-16T07:34:55.921Z,60.55
2022-12-16T07:37:36.344Z,60.69
2022-12-16T07:40:16.177Z,60.94
2022-12-16T07:42:56.399Z,60.60
2022-12-16T07:45:41.698Z,60.65
2022-12-16T07:48:25.266Z,60.78
2022-12-16T07:51:05.282Z,60.71
2022-12-16T07:53:45.658Z,60.71
2022-12-16T07:56:26.339Z,60.81
2022-12-16T07:59:06.277Z,60.91
2022-12-16T08:01:46.418Z,60.68
2022-12-16T08:04:26.588Z,60.66
2022-12-16T08:07:06.389Z,61.04
2022-12-16T08:09:46.571Z,60.66
2022-12-16T08:12:26.664Z,60.51
2022-12-16T08:15:06.475Z,61.11
2022-12-16T08:17:46.805Z,61.21
2022-12-16T08:20:27.327Z,60.90
2022-12-16T08:23:07.511Z,61.27
2022-12-16T08:25:47.304Z,62.15
2022-12-16T08:28:27.172Z,62.12
2022-12-16T08:31:10.685Z,61.81
2022-12-16T08:33:50.903Z,61.53
2022-12-16T08:36:30.909Z,61.30
2022-12-16T08:39:11.222Z,61.54
2022-12-16T08:41:51.375Z,61.88
2022-12-16T08:44:31.200Z,61.78
2022-12-16T08:47:11.569Z,61.53
2022-12-16T08:49:52.615Z,61.57
2022-12-16T08:52:34.953Z,62.67
2022-12-16T08:55:15.077Z,62.26
2022-12-16T08:57:55.075Z,61.69
2022-12-16T09:00:36.615Z,61.60
2022-12-16T09:03:17.617Z,61.70
2022-12-16T09:05:58.219Z,61.54
2022-12-16T09:08:38.046Z,61.96
2022-12-16T09:11:21.160Z,61.98
2022-12-16T09:14:01.318Z,62.00
2022-12-16T09:16:41.521Z,62.05
2022-12-16T09:19:21.615Z,62.38
2022-12-16T09:22:01.732Z,62.50
2022-12-16T09:24:42.009Z,63.07
2022-12-16T09:27:41.917Z,63.75
2022-12-16T09:30:22.635Z,63.23
2022-12-16T09:33:03.555Z,63.34
2022-12-16T09:35:43.728Z,63.54
2022-12-16T09:38:23.519Z,63.82
2022-12-16T09:41:03.587Z,63.90
2022-12-16T09:44:06.313Z,64.01
2022-12-16T09:46:52.734Z,64.49
2022-12-16T09:50:09.942Z,64.31
2022-12-16T09:52:56.010Z,64.56
2022-12-16T09:55:44.127Z,65.86
2022-12-16T09:58:24.982Z,65.58
2022-12-16T10:01:05.589Z,65.67
2022-12-16T10:03:56.353Z,66.73
2022-12-16T10:06:55.924Z,67.85
2022-12-16T10:10:04.185Z,68.89
2022-12-16T10:12:55.547Z,73.90
2022-12-16T10:15:44.888Z,72.23
2022-12-16T10:18:36.707Z,71.38
2022-12-16T10:21:17.164Z,71.39
2022-12-16T10:24:11.874Z,71.89
2022-12-16T10:27:26.638Z,70.61
2022-12-16T10:30:06.621Z,70.12
2022-12-16T10:32:59.003Z,71.04
2022-12-16T10:35:49.774Z,71.65
2022-12-16T10:38:57.629Z,74.65
2022-12-16T10:41:39.379Z,75.92
2022-12-16T10:44:23.868Z,82.68
2022-12-16T10:47:04.129Z,76.23
2022-12-16T10:49:43.995Z,77.69
2022-12-16T10:52:24.846Z,79.32
2022-12-16T10:55:16.432Z,79.99
2022-12-16T10:58:04.620Z,78.42
2022-12-16T11:01:03.642Z,79.37
2022-12-16T11:03:47.131Z,79.64
2022-12-16T11:06:29.328Z,77.91
2022-12-16T11:09:09.556Z,77.27
2022-12-16T11:11:50.187Z,77.97
2022-12-16T11:15:05.581Z,77.56
2022-12-16T11:17:47.188Z,76.95
2022-12-16T11:20:37.940Z,79.51
2022-12-16T11:23:39.641Z,80.40
2022-12-16T11:26:37.981Z,86.13
2022-12-16T11:29:30.924Z,83.55
2022-12-16T11:32:22.309Z,85.67
2022-12-16T11:35:08.011Z,87.69
2022-12-16T11:37:50.975Z,87.80
2022-12-16T11:40:37.150Z,88.74
2022-12-16T11:43:19.528Z,87.75
2022-12-16T11:46:00.732Z,88.53
2022-12-16T11:49:03.365Z,88.92
2022-12-16T11:51:46.834Z,87.56
2022-12-16T11:54:36.119Z,88.46
2022-12-16T11:57:19.811Z,90.09
2022-12-16T12:00:07.275Z,90.36
2022-12-16T12:02:55.845Z,89.61
2022-12-16T12:05:40.945Z,89.09
2022-12-16T12:08:34.040Z,88.89
2022-12-16T12:11:27.239Z,88.02
2022-12-16T12:14:10.087Z,88.52
2022-12-16T12:17:02.185Z,89.13
2022-12-16T12:19:56.173Z,88.11
2022-12-16T12:22:56.970Z,87.65
2022-12-16T12:25:41.274Z,85.63
2022-12-16T12:28:33.496Z,86.13
2022-12-16T12:31:50.092Z,86.09
2022-12-16T12:34:48.187Z,85.49
2022-12-16T12:37:37.612Z,86.64
2022-12-16T12:40:59.233Z,85.96
2022-12-16T12:43:51.478Z,86.16
2022-12-16T12:46:51.588Z,86.54
2022-12-16T12:49:52.813Z,86.09
2022-12-16T12:53:00.870Z,84.35
2022-12-16T12:56:01.180Z,83.38
2022-12-16T12:58:42.429Z,82.98
2022-12-16T13:01:25.932Z,83.51
2022-12-16T13:04:09.405Z,83.55
2022-12-16T13:06:50.560Z,83.59
2022-12-16T13:10:00.548Z,84.72
2022-12-16T13:12:43.122Z,85.33
2022-12-16T13:15:27.956Z,84.21
2022-12-16T13:18:20.236Z,82.79
2022-12-16T13:21:00.635Z,81.87
2022-12-16T13:23:54.672Z,81.27
2022-12-16T13:26:36.512Z,79.62
2022-12-16T13:29:45.784Z,80.27
2022-12-16T13:32:25.840Z,80.57
2022-12-16T13:35:18.475Z,79.93
2022-12-16T13:37:58.342Z,80.13
2022-12-16T13:40:42.329Z,80.25
2022-12-16T13:43:23.963Z,80.78
2022-12-16T13:46:19.675Z,79.90
2022-12-16T13:49:00.914Z,79.99
2022-12-16T13:51:56.509Z,81.02
2022-12-16T13:54:36.742Z,80.66
2022-12-16T13:57:20.633Z,79.05
2022-12-16T14:00:02.115Z,79.47
2022-12-16T14:02:50.520Z,80.53
2022-12-16T14:05:53.740Z,79.24
2022-12-16T14:08:37.092Z,78.91
2022-12-16T14:11:21.203Z,79.01
2022-12-16T14:14:27.007Z,78.56
2022-12-16T14:17:17.541Z,78.82
2022-12-16T14:20:00.489Z,78.69
2022-12-16T14:22:59.882Z,78.36
2022-12-16T14:25:41.764Z,78.64
2022-12-16T14:28:45.477Z,78.45
2022-12-16T14:31:34.666Z,77.23
2022-12-16T14:34:14.846Z,77.49
2022-12-16T14:36:58.001Z,77.38
2022-12-16T14:39:50.038Z,77.64
2022-12-16T14:42:41.292Z,77.18
2022-12-16T14:45:21.711Z,76.24
2022-12-16T14:48:01.590Z,75.04
2022-12-16T14:50:47.718Z,74.08
2022-12-16T14:53:42.151Z,74.63
2022-12-16T14:56:49.095Z,73.32
2022-12-16T14:59:33.000Z,73.62
2022-12-16T15:02:15.909Z,74.29
2022-12-16T15:04:56.632Z,74.14
2022-12-16T15:07:37.080Z,74.03
2022-12-16T15:10:19.635Z,73.39
2022-12-16T15:13:03.057Z,73.67
2022-12-16T15:15:51.381Z,71.25
2022-12-16T15:18:38.101Z,69.95
2022-12-16T15:21:18.225Z,70.83
2022-12-16T15:24:01.565Z,70.92
2022-12-16T15:26:44.711Z,69.92
2022-12-16T15:29:58.566Z,68.74
2022-12-16T15:32:51.011Z,69.15
2022-12-16T15:35:53.098Z,67.42
2022-12-16T15:38:39.292Z,68.32
2022-12-16T15:41:21.344Z,69.01
2022-12-16T15:44:04.515Z,69.15
2022-12-16T15:46:48.843Z,69.03
2022-12-16T15:49:47.385Z,68.33
2022-12-16T15:52:49.770Z,67.31
2022-12-16T15:55:57.055Z,67.37
2022-12-16T15:58:41.725Z,67.95
2022-12-16T16:01:22.112Z,68.05
2022-12-16T16:04:08.709Z,67.45
2022-12-16T16:06:49.720Z,66.48
2022-12-16T16:09:41.252Z,67.00
2022-12-16T16:12:21.601Z,67.12
2022-12-16T16:15:01.617Z,65.05
2022-12-16T16:17:42.208Z,65.52
2022-12-16T16:20:22.933Z,65.82
2022-12-16T16:23:02.750Z,66.29
2022-12-16T16:25:43.498Z,66.37
2022-12-16T16:28:25.284Z,66.25
2022-12-16T16:31:05.576Z,65.86
2022-12-16T16:33:53.006Z,65.36
2022-12-16T16:36:34.131Z,65.42
2022-12-16T16:39:14.353Z,64.68
2022-12-16T16:41:54.609Z,65.60
2022-12-16T16:44:34.503Z,65.16
2022-12-16T16:47:15.758Z,65.35
2022-12-16T16:50:01.568Z,65.44
2022-12-16T16:52:43.733Z,64.17
2022-12-16T16:55:25.319Z,64.42
2022-12-16T16:58:05.867Z,64.58
2022-12-16T17:00:46.182Z,65.12
2022-12-16T17:03:26.351Z,64.59
2022-12-16T17:06:06.739Z,65.03
2022-12-16T17:08:46.694Z,64.83
2022-12-16T17:11:37.835Z,65.15
2022-12-16T17:14:17.609Z,64.87
2022-12-16T17:16:58.546Z,65.18
2022-12-16T17:19:38.374Z,65.37
2022-12-16T17:22:18.288Z,64.76
2022-12-16T17:24:58.493Z,64.33
2022-12-16T17:27:41.619Z,63.54
2022-12-16T17:30:23.156Z,63.70
2022-12-16T17:33:03.327Z,64.42
2022-12-16T17:35:43.167Z,64.41
2022-12-16T17:38:23.001Z,64.54
2022-12-16T17:41:10.361Z,64.41
2022-12-16T17:43:50.432Z,64.24
2022-12-16T17:46:30.784Z,63.54
2022-12-16T17:49:12.515Z,63.75
2022-12-16T17:51:52.744Z,63.73
2022-12-16T17:54:33.196Z,63.57
2022-12-16T17:57:13.373Z,63.68
2022-12-16T17:59:54.826Z,63.27
2022-12-16T18:02:35.224Z,63.37
2022-12-16T18:05:15.268Z,62.73
2022-12-16T18:07:55.499Z,63.46
2022-12-16T18:10:35.338Z,63.61
2022-12-16T18:13:15.577Z,63.43
2022-12-16T18:15:55.997Z,63.67
2022-12-16T18:18:36.057Z,63.58
2022-12-16T18:21:16.076Z,63.49
2022-12-16T18:23:56.205Z,63.27
2022-12-16T18:26:36.799Z,63.08
2022-12-16T18:29:16.636Z,63.11
2022-12-16T18:31:56.922Z,63.05
2022-12-16T18:34:37.179Z,63.07
2022-12-16T18:37:17.310Z,63.71
2022-12-16T18:39:57.520Z,63.75
2022-12-16T18:42:37.429Z,64.65
2022-12-16T18:45:17.375Z,64.69
2022-12-16T18:47:57.358Z,64.31
2022-12-16T18:50:38.204Z,64.61
2022-12-16T18:53:18.173Z,64.74
2022-12-16T18:55:58.352Z,65.14
2022-12-16T18:58:53.589Z,64.78
2022-12-16T19:01:33.495Z,65.37
2022-12-16T19:04:15.198Z,64.90
2022-12-16T19:06:55.927Z,65.60
2022-12-16T19:09:35.895Z,65.76
2022-12-16T19:12:26.385Z,66.64
2022-12-16T19:15:06.392Z,66.25
2022-12-16T19:17:46.352Z,66.23
2022-12-16T19:20:32.878Z,67.29
2022-12-16T19:23:13.313Z,66.94
2022-12-16T19:25:53.506Z,67.39
2022-12-16T19:28:35.457Z,67.67
2022-12-16T19:31:15.917Z,66.77
2022-12-16T19:33:56.164Z,68.53
2022-12-16T19:36:36.165Z,68.66
2022-12-16T19:39:16.077Z,68.04
2022-12-16T19:41:56.355Z,69.63
2022-12-16T19:44:36.253Z,69.16
2022-12-16T19:47:16.223Z,69.08
2022-12-16T19:49:56.344Z,68.65
2022-12-16T19:52:36.333Z,69.71
2022-12-16T19:55:17.698Z,71.06
2022-12-16T19:57:57.855Z,70.67
2022-12-16T20:00:37.922Z,70.30
2022-12-16T20:03:17.845Z,71.19
2022-12-16T20:05:57.661Z,69.99
2022-12-16T20:08:37.762Z,70.12
2022-12-16T20:11:23.531Z,69.48
2022-12-16T20:14:03.346Z,69.82
2022-12-16T20:16:43.543Z,71.73
2022-12-16T20:19:23.820Z,70.45
2022-12-16T20:22:06.896Z,71.33
2022-12-16T20:24:48.660Z,72.00
2022-12-16T20:27:29.422Z,70.72
2022-12-16T20:30:09.956Z,70.92
2022-12-16T20:32:49.908Z,70.89
2022-12-16T20:35:29.902Z,72.12
2022-12-16T20:38:11.842Z,71.71
2022-12-16T20:40:51.516Z,71.14
2022-12-16T20:43:31.997Z,71.25
2022-12-16T20:46:15.317Z,71.12
2022-12-16T20:48:56.463Z,70.84
2022-12-16T20:51:36.684Z,70.32
2022-12-16T20:54:16.487Z,70.40
2022-12-16T20:56:56.565Z,70.42
2022-12-16T20:59:36.483Z,71.08
2022-12-16T21:02:26.832Z,73.24
2022-12-16T21:05:10.599Z,73.12
2022-12-16T21:07:51.080Z,73.27
2022-12-16T21:10:31.543Z,74.59
2022-12-16T21:13:11.387Z,74.25
2022-12-16T21:15:51.151Z,73.96
2022-12-16T21:18:33.497Z,75.27
2022-12-16T21:21:14.110Z,74.09
2022-12-16T21:23:54.081Z,74.44
2022-12-16T21:26:36.304Z,75.84
2022-12-16T21:29:16.500Z,75.95
2022-12-16T21:31:56.623Z,74.61
2022-12-16T21:34:36.755Z,74.41
2022-12-16T21:37:16.892Z,75.34
2022-12-16T21:39:56.992Z,76.08
2022-12-16T21:42:39.765Z,75.26
2022-12-16T21:45:23.991Z,75.13
2022-12-16T21:48:03.896Z,76.16
2022-12-16T21:50:44.177Z,75.40
2022-12-16T21:53:24.504Z,76.51
2022-12-16T21:56:13.565Z,77.59
2022-12-16T21:58:53.388Z,79.96
2022-12-16T22:01:34.848Z,78.38
2022-12-16T22:04:14.958Z,79.05
2022-12-16T22:06:55.179Z,78.86
2022-12-16T22:09:36.490Z,79.30
2022-12-16T22:12:16.670Z,78.06
2022-12-16T22:14:56.689Z,77.61
2022-12-16T22:17:36.906Z,80.39
2022-12-16T22:20:17.051Z,78.75
2022-12-16T22:22:56.871Z,79.53
2022-12-16T22:25:36.979Z,79.28
2022-12-16T22:28:16.837Z,79.71
2022-12-16T22:30:57.152Z,79.04
2022-12-16T22:33:37.320Z,79.17
2022-12-16T22:36:25.349Z,81.79
2022-12-16T22:39:05.767Z,80.07
2022-12-16T22:41:45.895Z,79.73
2022-12-16T22:44:26.898Z,80.58
2022-12-16T22:47:07.027Z,81.15
2022-12-16T22:49:47.155Z,80.18
2022-12-16T22:52:27.480Z,79.34
2022-12-16T22:55:07.363Z,79.15
2022-12-16T22:57:51.092Z,78.81
2022-12-16T23:00:34.048Z,78.95
2022-12-16T23:03:16.003Z,80.36
2022-12-16T23:06:06.539Z,80.94
2022-12-16T23:08:46.799Z,80.83
2022-12-16T23:11:37.483Z,80.25
2022-12-16T23:14:17.395Z,79.51
2022-12-16T23:16:57.689Z,79.78
2022-12-16T23:19:37.852Z,79.30
2022-12-16T23:22:17.933Z,79.99
2022-12-16T23:24:58.088Z,79.73
2022-12-16T23:27:48.911Z,79.63
2022-12-16T23:30:29.583Z,81.19
2022-12-16T23:33:21.466Z,79.78
2022-12-16T23:36:01.539Z,80.21
2022-12-16T23:38:41.413Z,80.08
2022-12-16T23:41:21.528Z,79.99
2022-12-16T23:44:02.633Z,80.18
2022-12-16T23:46:42.845Z,83.58
2022-12-16T23:49:22.978Z,82.47
2022-12-16T23:52:02.757Z,83.96
2022-12-16T23:54:42.779Z,82.67
2022-12-16T23:57:23.088Z,82.67
